createdAt,value
2022-08-21T00:02:34.962Z,17.40
2022-08-21T00:07:36.816Z,17.30
2022-08-21T00:12:38.982Z,17.30
2022-08-21T00:17:41.167Z,17.30
2022-08-21T00:22:43.461Z,17.30
2022-08-21T00:27:45.490Z,17.30
2022-08-21T00:32:47.454Z,17.30
2022-08-21T00:37:49.994Z,17.30
2022-08-21T00:42:53.362Z,17.20
2022-08-21T00:47:56.126Z,17.20
2022-08-21T00:52:58.767Z,17.20
2022-08-21T00:58:02.593Z,17.20
2022-08-21T01:03:08.946Z,17.20
2022-08-21T01:08:11.907Z,17.10
2022-08-21T01:13:17.142Z,17.20
2022-08-21T01:18:20.444Z,17.10
2022-08-21T01:23:22.273Z,17.10
2022-08-21T01:28:25.377Z,17.00
2022-08-21T01:33:27.304Z,17.00
2022-08-21T01:38:29.756Z,17.00
2022-08-21T01:43:39.415Z,17.10
2022-08-21T01:48:42.724Z,17.00
2022-08-21T01:53:45.139Z,16.90
2022-08-21T01:58:48.156Z,16.90
2022-08-21T02:03:50.000Z,16.90
2022-08-21T02:08:52.039Z,16.80
2022-08-21T02:13:53.812Z,16.80
2022-08-21T02:18:55.567Z,16.70
2022-08-21T02:23:57.393Z,16.60
2022-08-21T02:28:59.714Z,16.60
2022-08-21T02:34:01.607Z,16.70
2022-08-21T02:39:03.516Z,16.70
2022-08-21T02:44:05.299Z,16.60
2022-08-21T02:49:07.129Z,16.60
2022-08-21T02:54:08.937Z,16.60
2022-08-21T02:59:10.762Z,16.50
2022-08-21T03:04:12.564Z,16.50
2022-08-21T03:09:14.366Z,16.50
2022-08-21T03:14:16.150Z,16.40
2022-08-21T03:19:17.973Z,16.40
2022-08-21T03:24:21.243Z,16.40
2022-08-21T03:29:24.772Z,16.40
2022-08-21T03:34:26.570Z,16.30
2022-08-21T03:39:28.476Z,16.30
2022-08-21T03:44:30.948Z,16.20
2022-08-21T03:49:33.045Z,16.20
2022-08-21T03:54:34.855Z,16.20
2022-08-21T03:59:37.999Z,16.10
2022-08-21T04:04:39.756Z,16.20
2022-08-21T04:09:41.631Z,16.20
2022-08-21T04:14:43.390Z,16.10
2022-08-21T04:19:46.976Z,16.20
2022-08-21T04:24:50.792Z,16.20
2022-08-21T04:29:52.570Z,16.20
2022-08-21T04:35:02.223Z,16.20
2022-08-21T04:40:06.008Z,16.10
2022-08-21T04:45:08.038Z,16.10
2022-08-21T04:50:09.917Z,16.20
2022-08-21T04:55:18.524Z,16.30
2022-08-21T05:00:21.608Z,16.30
2022-08-21T05:05:24.007Z,16.40
2022-08-21T05:10:26.656Z,16.40
2022-08-21T05:15:28.506Z,16.50
2022-08-21T05:20:30.403Z,16.50
2022-08-21T05:25:32.190Z,16.50
2022-08-21T05:30:37.230Z,16.60
2022-08-21T05:35:40.175Z,16.70
2022-08-21T05:40:41.983Z,16.80
2022-08-21T05:45:44.642Z,16.90
2022-08-21T05:50:48.028Z,17.00
2022-08-21T05:55:50.830Z,17.10
2022-08-21T06:00:53.709Z,17.20
2022-08-21T06:05:56.660Z,17.30
2022-08-21T06:11:00.646Z,17.40
2022-08-21T06:16:11.349Z,17.50
2022-08-21T06:21:18.043Z,17.50
2022-08-21T06:26:21.276Z,17.60
2022-08-21T06:31:25.117Z,17.70
2022-08-21T06:36:27.247Z,17.70
2022-08-21T06:41:29.105Z,17.80
2022-08-21T06:46:32.107Z,17.90
2022-08-21T06:51:34.110Z,18.00
2022-08-21T06:56:38.902Z,18.10
2022-08-21T07:01:40.727Z,18.20
2022-08-21T07:06:42.520Z,18.30
2022-08-21T07:11:49.647Z,18.30
2022-08-21T07:16:52.265Z,18.30
2022-08-21T07:21:58.586Z,18.30
2022-08-21T07:27:00.346Z,18.40
2022-08-21T07:32:02.177Z,18.40
2022-08-21T07:37:06.028Z,18.40
2022-08-21T07:42:11.741Z,18.50
2022-08-21T07:47:13.531Z,18.60
2022-08-21T07:52:15.326Z,18.70
2022-08-21T07:57:17.159Z,18.80
2022-08-21T08:02:28.470Z,18.80
2022-08-21T08:07:30.481Z,18.80
2022-08-21T08:12:32.294Z,18.90
2022-08-21T08:17:34.217Z,18.90
2022-08-21T08:22:38.333Z,19.00
2022-08-21T08:27:40.654Z,19.00
2022-08-21T08:32:42.919Z,19.10
2022-08-21T08:37:46.775Z,19.20
2022-08-21T08:42:54.670Z,19.40
2022-08-21T08:48:05.015Z,19.50
2022-08-21T08:53:18.207Z,19.50
2022-08-21T08:58:31.266Z,19.50
2022-08-21T09:03:41.571Z,19.80
2022-08-21T09:08:46.102Z,20.30
2022-08-21T09:13:55.043Z,20.40
2022-08-21T09:19:36.635Z,20.50
2022-08-21T09:25:02.586Z,20.70
2022-08-21T09:30:07.422Z,21.00
2022-08-21T09:35:17.757Z,21.00
2022-08-21T09:40:47.170Z,20.80
2022-08-21T09:45:50.607Z,20.60
2022-08-21T09:50:54.574Z,20.50
2022-08-21T09:56:17.474Z,20.60
2022-08-21T10:01:26.544Z,20.70
2022-08-21T10:06:29.386Z,20.80
2022-08-21T10:11:32.259Z,20.80
2022-08-21T10:16:56.031Z,21.10
2022-08-21T10:22:19.331Z,21.00
2022-08-21T10:27:21.110Z,21.10
2022-08-21T10:32:57.728Z,21.60
2022-08-21T10:39:07.027Z,21.90
2022-08-21T10:44:10.317Z,21.70
2022-08-21T10:49:50.530Z,21.20
2022-08-21T10:54:58.691Z,21.10
2022-08-21T11:00:12.912Z,21.40
2022-08-21T11:05:55.247Z,21.80
2022-08-21T11:11:35.798Z,21.80
2022-08-21T11:16:54.290Z,21.60
2022-08-21T11:22:14.707Z,21.20
2022-08-21T11:27:26.180Z,21.10
2022-08-21T11:32:43.866Z,21.00
2022-08-21T11:37:45.663Z,21.10
2022-08-21T11:43:01.572Z,21.00
2022-08-21T11:48:06.418Z,21.10
2022-08-21T11:53:16.707Z,21.30
2022-08-21T11:58:31.678Z,21.30
2022-08-21T12:03:46.047Z,21.20
2022-08-21T12:08:59.621Z,21.30
2022-08-21T12:14:15.857Z,21.60
2022-08-21T12:19:20.700Z,21.90
2022-08-21T12:24:28.699Z,22.00
2022-08-21T12:29:38.297Z,22.10
2022-08-21T12:34:48.077Z,22.50
2022-08-21T12:39:53.703Z,22.70
2022-08-21T12:45:00.338Z,23.10
2022-08-21T12:50:12.055Z,23.00
2022-08-21T12:55:16.950Z,22.90
2022-08-21T13:00:23.483Z,23.10
2022-08-21T13:05:36.759Z,23.60
2022-08-21T13:10:40.037Z,23.60
2022-08-21T13:15:47.459Z,23.70
2022-08-21T13:20:50.301Z,23.60
2022-08-21T13:25:55.057Z,23.70
2022-08-21T13:30:56.988Z,23.70
2022-08-21T13:36:01.727Z,23.80
2022-08-21T13:41:11.278Z,23.80
2022-08-21T13:46:15.587Z,23.80
2022-08-21T13:51:17.570Z,23.70
2022-08-21T13:56:23.296Z,23.60
2022-08-21T14:01:33.007Z,23.50
2022-08-21T14:06:38.525Z,23.40
2022-08-21T14:11:41.283Z,23.30
2022-08-21T14:16:53.927Z,23.30
2022-08-21T14:21:55.909Z,23.20
2022-08-21T14:27:07.612Z,23.20
2022-08-21T14:32:25.211Z,23.20
2022-08-21T14:37:27.567Z,23.00
2022-08-21T14:42:30.028Z,22.90
2022-08-21T14:47:32.082Z,22.80
2022-08-21T14:52:33.945Z,22.60
2022-08-21T14:57:36.092Z,22.60
2022-08-21T15:02:42.773Z,22.50
2022-08-21T15:07:46.371Z,22.40
2022-08-21T15:12:48.197Z,22.20
2022-08-21T15:17:50.008Z,22.10
2022-08-21T15:22:52.099Z,22.00
2022-08-21T15:27:55.374Z,21.90
2022-08-21T15:32:58.715Z,21.80
2022-08-21T15:38:00.976Z,21.80
2022-08-21T15:43:06.546Z,21.70
2022-08-21T15:48:08.416Z,21.70
2022-08-21T15:53:10.481Z,21.60
2022-08-21T15:58:16.693Z,21.60
2022-08-21T16:03:22.566Z,21.60
2022-08-21T16:08:25.585Z,21.60
2022-08-21T16:13:33.121Z,21.60
2022-08-21T16:18:34.986Z,21.60
2022-08-21T16:23:39.020Z,21.60
2022-08-21T16:28:43.385Z,21.60
2022-08-21T16:33:53.515Z,21.60
2022-08-21T16:39:00.786Z,21.60
2022-08-21T16:44:03.912Z,21.50
2022-08-21T16:49:05.957Z,21.50
2022-08-21T16:54:08.009Z,21.50
2022-08-21T16:59:11.827Z,21.50
2022-08-21T17:04:13.968Z,21.50
2022-08-21T17:09:15.846Z,21.30
2022-08-21T17:14:20.918Z,21.30
2022-08-21T17:19:23.549Z,21.10
2022-08-21T17:24:25.474Z,21.00
2022-08-21T17:29:39.516Z,20.90
2022-08-21T17:34:41.568Z,20.80
2022-08-21T17:39:43.803Z,20.50
2022-08-21T17:44:46.204Z,20.30
2022-08-21T17:49:48.093Z,20.00
2022-08-21T17:54:49.907Z,19.80
2022-08-21T17:59:56.360Z,19.50
2022-08-21T18:04:59.979Z,19.30
2022-08-21T18:10:04.938Z,19.20
2022-08-21T18:15:07.913Z,19.10
2022-08-21T18:20:10.218Z,19.00
2022-08-21T18:25:12.884Z,18.80
2022-08-21T18:30:18.521Z,18.70
2022-08-21T18:35:20.990Z,18.60
2022-08-21T18:40:23.032Z,18.40
2022-08-21T18:45:25.080Z,18.40
2022-08-21T18:50:28.078Z,18.20
2022-08-21T18:55:32.569Z,18.10
2022-08-21T19:00:45.450Z,18.00
2022-08-21T19:05:47.625Z,17.90
2022-08-21T19:10:52.126Z,17.90
2022-08-21T19:15:55.464Z,17.80
2022-08-21T19:20:57.774Z,17.70
2022-08-21T19:26:02.617Z,17.70
2022-08-21T19:31:12.479Z,17.70
2022-08-21T19:36:19.357Z,17.60
2022-08-21T19:41:26.387Z,17.50
2022-08-21T19:46:35.052Z,17.40
2022-08-21T19:51:37.156Z,17.30
2022-08-21T19:56:39.051Z,17.30
2022-08-21T20:01:41.017Z,17.20
2022-08-21T20:06:44.248Z,17.20
2022-08-21T20:11:49.879Z,17.30
2022-08-21T20:16:52.871Z,17.30
2022-08-21T20:21:55.440Z,17.30
2022-08-21T20:26:58.370Z,17.30
2022-08-21T20:32:00.562Z,17.40
2022-08-21T20:37:02.720Z,17.40
2022-08-21T20:42:10.090Z,17.40
2022-08-21T20:47:12.116Z,17.40
2022-08-21T20:52:17.900Z,17.40
2022-08-21T20:57:46.006Z,17.40
2022-08-21T21:03:00.918Z,17.40
2022-08-21T21:08:11.812Z,17.40
2022-08-21T21:13:32.573Z,17.30
2022-08-21T21:18:45.227Z,17.10
2022-08-21T21:23:51.607Z,17.00
2022-08-21T21:29:01.822Z,16.80
2022-08-21T21:34:05.985Z,16.80
2022-08-21T21:39:20.707Z,16.70
2022-08-21T21:44:37.753Z,16.50
2022-08-21T21:50:18.992Z,16.30
2022-08-21T21:55:46.613Z,16.30
2022-08-21T22:00:57.574Z,16.20
2022-08-21T22:06:09.682Z,16.10
2022-08-21T22:16:43.537Z,16.00
2022-08-21T22:22:09.142Z,15.90
2022-08-21T22:27:18.913Z,15.80
2022-08-21T22:32:25.883Z,15.90
2022-08-21T22:37:35.608Z,15.80
2022-08-21T22:42:37.517Z,15.70
2022-08-21T22:47:46.058Z,15.70
2022-08-21T22:52:57.086Z,15.60
2022-08-21T22:58:11.523Z,15.60
2022-08-21T23:03:24.763Z,15.50
2022-08-21T23:08:38.777Z,15.40
2022-08-21T23:13:46.965Z,15.30
2022-08-21T23:19:00.729Z,15.30
2022-08-21T23:24:30.424Z,15.30
2022-08-21T23:30:00.898Z,15.30
2022-08-21T23:35:53.473Z,15.20
2022-08-21T23:41:10.971Z,15.10
2022-08-21T23:46:36.277Z,15.00
2022-08-21T23:51:42.930Z,15.00
2022-08-21T23:57:03.913Z,14.90
